sensor_id;sensor_type;location;lat;lon;timestamp;P1;durP1;ratioP1;P2;durP2;ratioP2
23496;SDS011;11925;48.122;11.560;2023-06-24T00:00:02;6.70;;;4.07;;
23496;SDS011;11925;48.122;11.560;2023-06-24T00:02:34;6.22;;;3.17;;
23496;SDS011;11925;48.122;11.560;2023-06-24T00:05:05;4.00;;;3.10;;
23496;SDS011;11925;48.122;11.560;2023-06-24T00:07:35;4.57;;;3.25;;
23496;SDS011;11925;48.122;11.560;2023-06-24T00:10:11;4.45;;;2.90;;
23496;SDS011;11925;48.122;11.560;2023-06-24T00:12:39;5.00;;;3.15;;
23496;SDS011;11925;48.122;11.560;2023-06-24T00:15:08;4.38;;;3.00;;
23496;SDS011;11925;48.122;11.560;2023-06-24T00:17:38;4.60;;;2.65;;
23496;SDS011;11925;48.122;11.560;2023-06-24T00:20:09;5.47;;;3.13;;
23496;SDS011;11925;48.122;11.560;2023-06-24T00:22:40;5.82;;;3.50;;
23496;SDS011;11925;48.122;11.560;2023-06-24T00:25:11;5.28;;;3.30;;
23496;SDS011;11925;48.122;11.560;2023-06-24T00:27:40;4.25;;;3.17;;
23496;SDS011;11925;48.122;11.560;2023-06-24T00:30:09;5.53;;;2.92;;
23496;SDS011;11925;48.122;11.560;2023-06-24T00:32:39;4.18;;;2.90;;
23496;SDS011;11925;48.122;11.560;2023-06-24T00:35:09;3.85;;;2.78;;
23496;SDS011;11925;48.122;11.560;2023-06-24T00:37:39;5.30;;;3.13;;
23496;SDS011;11925;48.122;11.560;2023-06-24T00:40:08;3.85;;;2.63;;
23496;SDS011;11925;48.122;11.560;2023-06-24T00:42:41;5.78;;;3.10;;
23496;SDS011;11925;48.122;11.560;2023-06-24T00:45:10;5.97;;;3.10;;
23496;SDS011;11925;48.122;11.560;2023-06-24T00:47:40;4.07;;;2.90;;
23496;SDS011;11925;48.122;11.560;2023-06-24T00:50:09;4.35;;;2.88;;
23496;SDS011;11925;48.122;11.560;2023-06-24T00:52:39;3.88;;;2.83;;
23496;SDS011;11925;48.122;11.560;2023-06-24T00:55:09;4.65;;;3.33;;
23496;SDS011;11925;48.122;11.560;2023-06-24T00:57:39;5.35;;;3.40;;
23496;SDS011;11925;48.122;11.560;2023-06-24T01:00:09;4.38;;;2.75;;
23496;SDS011;11925;48.122;11.560;2023-06-24T01:02:42;4.32;;;3.15;;
23496;SDS011;11925;48.122;11.560;2023-06-24T01:05:11;3.67;;;2.40;;
23496;SDS011;11925;48.122;11.560;2023-06-24T01:07:41;4.13;;;3.00;;
23496;SDS011;11925;48.122;11.560;2023-06-24T01:12:41;4.13;;;2.75;;
23496;SDS011;11925;48.122;11.560;2023-06-24T01:15:10;5.38;;;3.15;;
23496;SDS011;11925;48.122;11.560;2023-06-24T01:17:43;3.97;;;2.78;;
23496;SDS011;11925;48.122;11.560;2023-06-24T01:20:18;5.38;;;2.95;;
23496;SDS011;11925;48.122;11.560;2023-06-24T01:23:11;4.45;;;2.80;;
23496;SDS011;11925;48.122;11.560;2023-06-24T01:25:59;4.60;;;2.80;;
23496;SDS011;11925;48.122;11.560;2023-06-24T01:28:45;5.22;;;2.92;;
23496;SDS011;11925;48.122;11.560;2023-06-24T01:31:35;3.58;;;2.75;;
23496;SDS011;11925;48.122;11.560;2023-06-24T01:34:11;3.83;;;2.70;;
23496;SDS011;11925;48.122;11.560;2023-06-24T01:36:47;5.78;;;3.42;;
23496;SDS011;11925;48.122;11.560;2023-06-24T01:39:21;4.85;;;2.83;;
23496;SDS011;11925;48.122;11.560;2023-06-24T01:41:53;4.03;;;2.72;;
23496;SDS011;11925;48.122;11.560;2023-06-24T01:44:26;5.03;;;2.97;;
23496;SDS011;11925;48.122;11.560;2023-06-24T01:46:58;3.95;;;2.70;;
23496;SDS011;11925;48.122;11.560;2023-06-24T01:52:00;5.05;;;3.20;;
23496;SDS011;11925;48.122;11.560;2023-06-24T01:59:33;4.80;;;2.67;;
23496;SDS011;11925;48.122;11.560;2023-06-24T02:02:04;4.28;;;2.92;;
23496;SDS011;11925;48.122;11.560;2023-06-24T02:04:34;4.97;;;2.78;;
23496;SDS011;11925;48.122;11.560;2023-06-24T02:07:04;3.85;;;2.70;;
23496;SDS011;11925;48.122;11.560;2023-06-24T02:09:36;4.00;;;2.60;;
23496;SDS011;11925;48.122;11.560;2023-06-24T02:12:07;4.20;;;2.65;;
23496;SDS011;11925;48.122;11.560;2023-06-24T02:14:37;4.97;;;2.78;;
23496;SDS011;11925;48.122;11.560;2023-06-24T02:17:09;4.40;;;2.80;;
23496;SDS011;11925;48.122;11.560;2023-06-24T02:19:39;4.20;;;2.88;;
23496;SDS011;11925;48.122;11.560;2023-06-24T02:22:08;4.60;;;3.05;;
23496;SDS011;11925;48.122;11.560;2023-06-24T02:24:37;3.88;;;2.88;;
23496;SDS011;11925;48.122;11.560;2023-06-24T02:27:06;4.07;;;2.78;;
23496;SDS011;11925;48.122;11.560;2023-06-24T02:29:35;4.68;;;2.90;;
23496;SDS011;11925;48.122;11.560;2023-06-24T02:32:05;4.32;;;2.92;;
23496;SDS011;11925;48.122;11.560;2023-06-24T02:34:35;4.10;;;2.63;;
23496;SDS011;11925;48.122;11.560;2023-06-24T02:37:04;4.40;;;2.92;;
23496;SDS011;11925;48.122;11.560;2023-06-24T02:39:33;4.15;;;2.50;;
23496;SDS011;11925;48.122;11.560;2023-06-24T02:42:02;3.72;;;2.60;;
23496;SDS011;11925;48.122;11.560;2023-06-24T02:44:30;3.97;;;2.83;;
23496;SDS011;11925;48.122;11.560;2023-06-24T02:47:00;4.35;;;2.92;;
23496;SDS011;11925;48.122;11.560;2023-06-24T02:49:29;4.53;;;3.05;;
23496;SDS011;11925;48.122;11.560;2023-06-24T02:52:00;5.25;;;3.20;;
23496;SDS011;11925;48.122;11.560;2023-06-24T02:54:29;5.00;;;3.28;;
23496;SDS011;11925;48.122;11.560;2023-06-24T02:57:16;3.88;;;2.92;;
23496;SDS011;11925;48.122;11.560;2023-06-24T03:00:09;5.03;;;3.13;;
23496;SDS011;11925;48.122;11.560;2023-06-24T03:03:03;5.10;;;3.42;;
23496;SDS011;11925;48.122;11.560;2023-06-24T03:05:35;4.80;;;2.88;;
23496;SDS011;11925;48.122;11.560;2023-06-24T03:08:06;6.18;;;3.45;;
23496;SDS011;11925;48.122;11.560;2023-06-24T03:10:36;4.75;;;3.17;;
23496;SDS011;11925;48.122;11.560;2023-06-24T03:13:09;4.95;;;3.00;;
23496;SDS011;11925;48.122;11.560;2023-06-24T03:15:43;5.72;;;3.42;;
23496;SDS011;11925;48.122;11.560;2023-06-24T03:18:12;4.88;;;3.05;;
23496;SDS011;11925;48.122;11.560;2023-06-24T03:20:41;4.18;;;2.97;;
23496;SDS011;11925;48.122;11.560;2023-06-24T03:23:16;4.43;;;2.75;;
23496;SDS011;11925;48.122;11.560;2023-06-24T03:25:44;4.70;;;3.25;;
23496;SDS011;11925;48.122;11.560;2023-06-24T03:28:14;6.13;;;3.13;;
23496;SDS011;11925;48.122;11.560;2023-06-24T03:30:52;5.25;;;3.50;;
23496;SDS011;11925;48.122;11.560;2023-06-24T03:33:20;6.93;;;3.38;;
23496;SDS011;11925;48.122;11.560;2023-06-24T03:35:49;5.70;;;3.42;;
23496;SDS011;11925;48.122;11.560;2023-06-24T03:38:23;4.82;;;3.15;;
23496;SDS011;11925;48.122;11.560;2023-06-24T03:40:51;4.60;;;2.95;;
23496;SDS011;11925;48.122;11.560;2023-06-24T03:43:20;4.97;;;3.05;;
23496;SDS011;11925;48.122;11.560;2023-06-24T03:45:49;5.10;;;3.15;;
23496;SDS011;11925;48.122;11.560;2023-06-24T03:48:18;5.63;;;3.17;;
23496;SDS011;11925;48.122;11.560;2023-06-24T03:50:47;5.18;;;3.03;;
23496;SDS011;11925;48.122;11.560;2023-06-24T03:53:15;4.20;;;2.75;;
23496;SDS011;11925;48.122;11.560;2023-06-24T03:55:45;4.15;;;2.88;;
23496;SDS011;11925;48.122;11.560;2023-06-24T03:58:15;3.78;;;2.90;;
23496;SDS011;11925;48.122;11.560;2023-06-24T04:00:43;5.22;;;2.75;;
23496;SDS011;11925;48.122;11.560;2023-06-24T04:03:13;5.18;;;3.28;;
23496;SDS011;11925;48.122;11.560;2023-06-24T04:05:41;5.10;;;2.92;;
23496;SDS011;11925;48.122;11.560;2023-06-24T04:08:10;5.28;;;2.90;;
23496;SDS011;11925;48.122;11.560;2023-06-24T04:10:38;4.63;;;3.13;;
23496;SDS011;11925;48.122;11.560;2023-06-24T04:13:12;4.65;;;3.22;;
23496;SDS011;11925;48.122;11.560;2023-06-24T04:15:41;5.07;;;2.95;;
23496;SDS011;11925;48.122;11.560;2023-06-24T04:18:10;4.35;;;3.22;;
23496;SDS011;11925;48.122;11.560;2023-06-24T04:20:38;5.90;;;3.25;;
23496;SDS011;11925;48.122;11.560;2023-06-24T04:23:07;4.57;;;3.10;;
23496;SDS011;11925;48.122;11.560;2023-06-24T04:25:37;5.53;;;2.75;;
23496;SDS011;11925;48.122;11.560;2023-06-24T04:28:05;5.05;;;2.95;;
23496;SDS011;11925;48.122;11.560;2023-06-24T04:30:35;4.65;;;3.20;;
23496;SDS011;11925;48.122;11.560;2023-06-24T04:33:06;7.28;;;3.05;;
23496;SDS011;11925;48.122;11.560;2023-06-24T04:35:35;4.43;;;3.10;;
23496;SDS011;11925;48.122;11.560;2023-06-24T04:38:04;5.18;;;3.40;;
23496;SDS011;11925;48.122;11.560;2023-06-24T04:40:32;4.55;;;3.17;;
23496;SDS011;11925;48.122;11.560;2023-06-24T04:43:01;4.70;;;3.42;;
23496;SDS011;11925;48.122;11.560;2023-06-24T04:45:29;6.10;;;2.97;;
23496;SDS011;11925;48.122;11.560;2023-06-24T04:47:59;5.30;;;3.05;;
23496;SDS011;11925;48.122;11.560;2023-06-24T04:50:27;5.05;;;3.38;;
23496;SDS011;11925;48.122;11.560;2023-06-24T04:52:56;5.13;;;3.28;;
23496;SDS011;11925;48.122;11.560;2023-06-24T04:55:24;5.07;;;3.30;;
23496;SDS011;11925;48.122;11.560;2023-06-24T04:57:53;4.95;;;3.25;;
23496;SDS011;11925;48.122;11.560;2023-06-24T05:00:21;5.63;;;3.53;;
23496;SDS011;11925;48.122;11.560;2023-06-24T05:02:51;4.85;;;3.25;;
23496;SDS011;11925;48.122;11.560;2023-06-24T05:05:21;5.15;;;3.42;;
23496;SDS011;11925;48.122;11.560;2023-06-24T05:07:49;4.97;;;3.30;;
23496;SDS011;11925;48.122;11.560;2023-06-24T05:10:18;4.05;;;2.90;;
23496;SDS011;11925;48.122;11.560;2023-06-24T05:12:46;4.30;;;3.22;;
23496;SDS011;11925;48.122;11.560;2023-06-24T05:15:14;4.97;;;3.25;;
23496;SDS011;11925;48.122;11.560;2023-06-24T05:17:43;5.20;;;3.38;;
23496;SDS011;11925;48.122;11.560;2023-06-24T05:20:11;5.45;;;3.17;;
23496;SDS011;11925;48.122;11.560;2023-06-24T05:22:41;4.80;;;3.22;;
23496;SDS011;11925;48.122;11.560;2023-06-24T05:25:10;5.78;;;3.50;;
23496;SDS011;11925;48.122;11.560;2023-06-24T05:27:38;5.18;;;3.30;;
23496;SDS011;11925;48.122;11.560;2023-06-24T05:30:07;4.88;;;3.30;;
23496;SDS011;11925;48.122;11.560;2023-06-24T05:32:36;5.13;;;3.00;;
23496;SDS011;11925;48.122;11.560;2023-06-24T05:35:04;5.20;;;3.35;;
23496;SDS011;11925;48.122;11.560;2023-06-24T05:37:33;4.22;;;3.08;;
23496;SDS011;11925;48.122;11.560;2023-06-24T05:40:04;5.03;;;2.92;;
23496;SDS011;11925;48.122;11.560;2023-06-24T05:42:34;5.28;;;3.33;;
23496;SDS011;11925;48.122;11.560;2023-06-24T05:45:02;5.68;;;3.20;;
23496;SDS011;11925;48.122;11.560;2023-06-24T05:47:31;3.88;;;2.85;;
23496;SDS011;11925;48.122;11.560;2023-06-24T05:49:59;4.28;;;3.28;;
23496;SDS011;11925;48.122;11.560;2023-06-24T05:52:28;5.45;;;3.40;;
23496;SDS011;11925;48.122;11.560;2023-06-24T05:54:56;4.95;;;3.33;;
23496;SDS011;11925;48.122;11.560;2023-06-24T05:57:26;4.88;;;3.35;;
23496;SDS011;11925;48.122;11.560;2023-06-24T05:59:54;4.25;;;3.10;;
23496;SDS011;11925;48.122;11.560;2023-06-24T06:02:22;5.65;;;3.22;;
23496;SDS011;11925;48.122;11.560;2023-06-24T06:04:51;5.03;;;3.22;;
23496;SDS011;11925;48.122;11.560;2023-06-24T06:07:19;4.07;;;2.70;;
23496;SDS011;11925;48.122;11.560;2023-06-24T06:09:47;5.60;;;3.25;;
23496;SDS011;11925;48.122;11.560;2023-06-24T06:12:16;5.20;;;3.13;;
23496;SDS011;11925;48.122;11.560;2023-06-24T06:14:45;4.03;;;2.75;;
23496;SDS011;11925;48.122;11.560;2023-06-24T06:17:14;5.32;;;3.00;;
23496;SDS011;11925;48.122;11.560;2023-06-24T06:19:42;5.03;;;2.72;;
23496;SDS011;11925;48.122;11.560;2023-06-24T06:22:15;4.00;;;3.00;;
23496;SDS011;11925;48.122;11.560;2023-06-24T06:24:44;3.83;;;2.88;;
23496;SDS011;11925;48.122;11.560;2023-06-24T06:27:12;4.53;;;3.35;;
23496;SDS011;11925;48.122;11.560;2023-06-24T06:29:41;4.50;;;3.38;;
23496;SDS011;11925;48.122;11.560;2023-06-24T06:32:11;4.70;;;3.08;;
23496;SDS011;11925;48.122;11.560;2023-06-24T06:34:39;4.65;;;2.92;;
23496;SDS011;11925;48.122;11.560;2023-06-24T06:37:08;4.95;;;3.15;;
23496;SDS011;11925;48.122;11.560;2023-06-24T06:39:37;4.78;;;2.80;;
23496;SDS011;11925;48.122;11.560;2023-06-24T06:42:05;4.32;;;2.80;;
23496;SDS011;11925;48.122;11.560;2023-06-24T06:44:34;5.05;;;3.17;;
23496;SDS011;11925;48.122;11.560;2023-06-24T06:47:02;4.82;;;3.25;;
23496;SDS011;11925;48.122;11.560;2023-06-24T06:49:32;4.63;;;3.33;;
23496;SDS011;11925;48.122;11.560;2023-06-24T06:52:01;4.18;;;2.90;;
23496;SDS011;11925;48.122;11.560;2023-06-24T06:54:29;6.18;;;3.17;;
23496;SDS011;11925;48.122;11.560;2023-06-24T06:56:59;5.25;;;3.20;;
23496;SDS011;11925;48.122;11.560;2023-06-24T06:59:28;5.35;;;3.50;;
23496;SDS011;11925;48.122;11.560;2023-06-24T07:01:56;4.50;;;3.30;;
23496;SDS011;11925;48.122;11.560;2023-06-24T07:04:25;4.50;;;3.13;;
23496;SDS011;11925;48.122;11.560;2023-06-24T07:06:55;4.70;;;3.13;;
23496;SDS011;11925;48.122;11.560;2023-06-24T07:09:23;4.35;;;3.00;;
23496;SDS011;11925;48.122;11.560;2023-06-24T07:11:51;5.47;;;3.25;;
23496;SDS011;11925;48.122;11.560;2023-06-24T07:14:19;5.38;;;3.20;;
23496;SDS011;11925;48.122;11.560;2023-06-24T07:16:48;3.97;;;2.80;;
23496;SDS011;11925;48.122;11.560;2023-06-24T07:19:17;4.38;;;3.15;;
23496;SDS011;11925;48.122;11.560;2023-06-24T07:21:45;5.10;;;3.00;;
23496;SDS011;11925;48.122;11.560;2023-06-24T07:24:15;4.28;;;2.85;;
23496;SDS011;11925;48.122;11.560;2023-06-24T07:26:43;4.80;;;3.42;;
23496;SDS011;11925;48.122;11.560;2023-06-24T07:29:12;5.70;;;3.45;;
23496;SDS011;11925;48.122;11.560;2023-06-24T07:31:40;5.90;;;3.63;;
23496;SDS011;11925;48.122;11.560;2023-06-24T07:34:09;5.55;;;2.83;;
23496;SDS011;11925;48.122;11.560;2023-06-24T07:36:37;4.53;;;2.88;;
23496;SDS011;11925;48.122;11.560;2023-06-24T07:39:06;3.95;;;2.97;;
23496;SDS011;11925;48.122;11.560;2023-06-24T07:41:36;3.95;;;2.58;;
23496;SDS011;11925;48.122;11.560;2023-06-24T07:44:04;4.13;;;2.85;;
23496;SDS011;11925;48.122;11.560;2023-06-24T07:46:32;4.13;;;2.78;;
23496;SDS011;11925;48.122;11.560;2023-06-24T07:49:01;5.13;;;3.03;;
23496;SDS011;11925;48.122;11.560;2023-06-24T07:51:29;4.38;;;2.70;;
23496;SDS011;11925;48.122;11.560;2023-06-24T07:53:58;4.30;;;2.85;;
23496;SDS011;11925;48.122;11.560;2023-06-24T07:56:26;4.07;;;2.92;;
23496;SDS011;11925;48.122;11.560;2023-06-24T07:58:56;4.30;;;2.95;;
23496;SDS011;11925;48.122;11.560;2023-06-24T08:01:25;3.85;;;2.92;;
23496;SDS011;11925;48.122;11.560;2023-06-24T08:03:54;3.90;;;2.70;;
23496;SDS011;11925;48.122;11.560;2023-06-24T08:06:22;3.92;;;2.80;;
23496;SDS011;11925;48.122;11.560;2023-06-24T08:08:51;4.47;;;3.30;;
23496;SDS011;11925;48.122;11.560;2023-06-24T08:11:19;4.53;;;3.03;;
23496;SDS011;11925;48.122;11.560;2023-06-24T08:13:48;4.45;;;2.90;;
23496;SDS011;11925;48.122;11.560;2023-06-24T08:16:17;3.90;;;3.10;;
23496;SDS011;11925;48.122;11.560;2023-06-24T08:18:46;4.57;;;3.13;;
23496;SDS011;11925;48.122;11.560;2023-06-24T08:21:15;4.25;;;2.97;;
23496;SDS011;11925;48.122;11.560;2023-06-24T08:23:43;5.43;;;3.28;;
23496;SDS011;11925;48.122;11.560;2023-06-24T08:26:13;3.92;;;2.60;;
23496;SDS011;11925;48.122;11.560;2023-06-24T08:28:43;5.47;;;3.10;;
23496;SDS011;11925;48.122;11.560;2023-06-24T08:31:13;6.03;;;3.70;;
23496;SDS011;11925;48.122;11.560;2023-06-24T08:33:43;5.63;;;3.55;;
23496;SDS011;11925;48.122;11.560;2023-06-24T08:36:13;6.93;;;3.42;;
23496;SDS011;11925;48.122;11.560;2023-06-24T08:38:41;4.50;;;3.67;;
23496;SDS011;11925;48.122;11.560;2023-06-24T08:41:10;5.72;;;3.50;;
23496;SDS011;11925;48.122;11.560;2023-06-24T08:43:38;4.03;;;2.90;;
23496;SDS011;11925;48.122;11.560;2023-06-24T08:46:07;6.32;;;3.55;;
23496;SDS011;11925;48.122;11.560;2023-06-24T08:48:35;4.55;;;3.30;;
23496;SDS011;11925;48.122;11.560;2023-06-24T08:51:11;5.85;;;3.33;;
23496;SDS011;11925;48.122;11.560;2023-06-24T08:53:45;5.63;;;3.55;;
23496;SDS011;11925;48.122;11.560;2023-06-24T08:56:15;3.83;;;2.92;;
23496;SDS011;11925;48.122;11.560;2023-06-24T08:58:44;4.93;;;3.15;;
23496;SDS011;11925;48.122;11.560;2023-06-24T09:01:13;5.15;;;3.13;;
23496;SDS011;11925;48.122;11.560;2023-06-24T09:03:41;6.88;;;3.50;;
23496;SDS011;11925;48.122;11.560;2023-06-24T09:06:11;5.00;;;3.58;;
23496;SDS011;11925;48.122;11.560;2023-06-24T09:08:39;5.32;;;3.50;;
23496;SDS011;11925;48.122;11.560;2023-06-24T09:11:08;4.65;;;3.30;;
23496;SDS011;11925;48.122;11.560;2023-06-24T09:13:36;6.82;;;3.58;;
23496;SDS011;11925;48.122;11.560;2023-06-24T09:16:11;6.15;;;3.28;;
23496;SDS011;11925;48.122;11.560;2023-06-24T09:18:41;4.90;;;3.28;;
23496;SDS011;11925;48.122;11.560;2023-06-24T09:21:18;4.75;;;3.60;;
23496;SDS011;11925;48.122;11.560;2023-06-24T09:23:53;7.38;;;3.60;;
23496;SDS011;11925;48.122;11.560;2023-06-24T09:28:50;7.15;;;3.83;;
23496;SDS011;11925;48.122;11.560;2023-06-24T09:31:19;6.03;;;4.07;;
23496;SDS011;11925;48.122;11.560;2023-06-24T09:33:50;5.78;;;3.22;;
23496;SDS011;11925;48.122;11.560;2023-06-24T09:36:19;6.40;;;3.85;;
23496;SDS011;11925;48.122;11.560;2023-06-24T09:38:48;5.10;;;3.58;;
23496;SDS011;11925;48.122;11.560;2023-06-24T09:41:16;4.70;;;3.38;;
23496;SDS011;11925;48.122;11.560;2023-06-24T09:43:45;6.00;;;3.67;;
23496;SDS011;11925;48.122;11.560;2023-06-24T09:46:14;7.00;;;3.90;;
23496;SDS011;11925;48.122;11.560;2023-06-24T09:48:46;6.05;;;3.90;;
23496;SDS011;11925;48.122;11.560;2023-06-24T09:51:14;5.45;;;4.00;;
23496;SDS011;11925;48.122;11.560;2023-06-24T09:53:46;5.20;;;3.85;;
23496;SDS011;11925;48.122;11.560;2023-06-24T09:56:15;4.63;;;3.38;;
23496;SDS011;11925;48.122;11.560;2023-06-24T09:58:44;6.28;;;3.92;;
23496;SDS011;11925;48.122;11.560;2023-06-24T10:01:14;5.78;;;3.80;;
23496;SDS011;11925;48.122;11.560;2023-06-24T10:03:44;5.68;;;3.72;;
23496;SDS011;11925;48.122;11.560;2023-06-24T10:06:13;4.82;;;4.00;;
23496;SDS011;11925;48.122;11.560;2023-06-24T10:08:41;7.05;;;4.13;;
23496;SDS011;11925;48.122;11.560;2023-06-24T10:11:11;5.60;;;3.72;;
23496;SDS011;11925;48.122;11.560;2023-06-24T10:13:40;5.05;;;3.45;;
23496;SDS011;11925;48.122;11.560;2023-06-24T10:16:08;4.75;;;3.92;;
23496;SDS011;11925;48.122;11.560;2023-06-24T10:18:37;6.65;;;3.55;;
23496;SDS011;11925;48.122;11.560;2023-06-24T10:21:08;5.53;;;3.42;;
23496;SDS011;11925;48.122;11.560;2023-06-24T10:23:40;5.78;;;3.80;;
23496;SDS011;11925;48.122;11.560;2023-06-24T10:26:21;5.47;;;3.90;;
23496;SDS011;11925;48.122;11.560;2023-06-24T10:29:10;5.25;;;3.95;;
23496;SDS011;11925;48.122;11.560;2023-06-24T10:31:53;5.22;;;3.38;;
23496;SDS011;11925;48.122;11.560;2023-06-24T10:34:28;5.67;;;3.50;;
23496;SDS011;11925;48.122;11.560;2023-06-24T10:37:02;5.85;;;4.15;;
23496;SDS011;11925;48.122;11.560;2023-06-24T10:39:35;5.63;;;4.00;;
23496;SDS011;11925;48.122;11.560;2023-06-24T10:45:14;6.00;;;3.80;;
23496;SDS011;11925;48.122;11.560;2023-06-24T10:47:47;5.07;;;3.75;;
23496;SDS011;11925;48.122;11.560;2023-06-24T10:50:19;6.22;;;4.53;;
23496;SDS011;11925;48.122;11.560;2023-06-24T10:52:51;5.18;;;3.90;;
23496;SDS011;11925;48.122;11.560;2023-06-24T10:55:22;5.28;;;4.05;;
23496;SDS011;11925;48.122;11.560;2023-06-24T10:57:53;6.45;;;4.40;;
23496;SDS011;11925;48.122;11.560;2023-06-24T11:00:22;5.68;;;3.88;;
23496;SDS011;11925;48.122;11.560;2023-06-24T11:02:50;6.10;;;4.20;;
23496;SDS011;11925;48.122;11.560;2023-06-24T11:05:19;6.40;;;4.18;;
23496;SDS011;11925;48.122;11.560;2023-06-24T11:07:47;6.75;;;4.43;;
23496;SDS011;11925;48.122;11.560;2023-06-24T11:10:16;5.63;;;3.95;;
23496;SDS011;11925;48.122;11.560;2023-06-24T11:12:45;5.68;;;3.95;;
23496;SDS011;11925;48.122;11.560;2023-06-24T11:15:15;5.70;;;4.15;;
23496;SDS011;11925;48.122;11.560;2023-06-24T11:17:45;7.45;;;4.75;;
23496;SDS011;11925;48.122;11.560;2023-06-24T11:20:18;5.07;;;3.85;;
23496;SDS011;11925;48.122;11.560;2023-06-24T11:22:46;5.45;;;3.83;;
23496;SDS011;11925;48.122;11.560;2023-06-24T11:25:14;5.97;;;4.25;;
23496;SDS011;11925;48.122;11.560;2023-06-24T11:27:44;5.28;;;4.10;;
23496;SDS011;11925;48.122;11.560;2023-06-24T11:30:13;6.03;;;4.03;;
23496;SDS011;11925;48.122;11.560;2023-06-24T11:32:44;6.10;;;4.03;;
23496;SDS011;11925;48.122;11.560;2023-06-24T11:35:14;6.13;;;4.50;;
23496;SDS011;11925;48.122;11.560;2023-06-24T11:37:46;8.02;;;4.20;;
23496;SDS011;11925;48.122;11.560;2023-06-24T11:40:16;6.30;;;3.90;;
23496;SDS011;11925;48.122;11.560;2023-06-24T11:42:46;5.00;;;3.70;;
23496;SDS011;11925;48.122;11.560;2023-06-24T11:45:19;5.85;;;4.00;;
23496;SDS011;11925;48.122;11.560;2023-06-24T11:47:49;6.20;;;4.47;;
23496;SDS011;11925;48.122;11.560;2023-06-24T11:50:24;5.43;;;4.28;;
23496;SDS011;11925;48.122;11.560;2023-06-24T11:52:53;6.53;;;4.10;;
23496;SDS011;11925;48.122;11.560;2023-06-24T11:55:23;5.30;;;3.90;;
23496;SDS011;11925;48.122;11.560;2023-06-24T11:57:54;5.45;;;3.95;;
23496;SDS011;11925;48.122;11.560;2023-06-24T12:00:23;4.72;;;3.80;;
23496;SDS011;11925;48.122;11.560;2023-06-24T12:02:56;5.45;;;3.45;;
23496;SDS011;11925;48.122;11.560;2023-06-24T12:05:26;5.30;;;3.70;;
23496;SDS011;11925;48.122;11.560;2023-06-24T12:07:56;7.40;;;4.13;;
23496;SDS011;11925;48.122;11.560;2023-06-24T12:10:25;5.78;;;3.90;;
23496;SDS011;11925;48.122;11.560;2023-06-24T12:12:55;5.35;;;3.70;;
23496;SDS011;11925;48.122;11.560;2023-06-24T12:15:24;5.20;;;3.70;;
23496;SDS011;11925;48.122;11.560;2023-06-24T12:17:53;6.65;;;3.65;;
23496;SDS011;11925;48.122;11.560;2023-06-24T12:20:23;5.53;;;3.80;;
23496;SDS011;11925;48.122;11.560;2023-06-24T12:23:02;5.65;;;4.05;;
23496;SDS011;11925;48.122;11.560;2023-06-24T12:25:31;5.22;;;3.80;;
23496;SDS011;11925;48.122;11.560;2023-06-24T12:28:00;5.82;;;3.97;;
23496;SDS011;11925;48.122;11.560;2023-06-24T12:30:29;5.78;;;3.63;;
23496;SDS011;11925;48.122;11.560;2023-06-24T12:32:57;5.32;;;3.90;;
23496;SDS011;11925;48.122;11.560;2023-06-24T12:35:27;5.13;;;3.80;;
23496;SDS011;11925;48.122;11.560;2023-06-24T12:37:56;6.53;;;3.67;;
23496;SDS011;11925;48.122;11.560;2023-06-24T12:40:25;6.53;;;4.05;;
23496;SDS011;11925;48.122;11.560;2023-06-24T12:42:53;7.35;;;4.13;;
23496;SDS011;11925;48.122;11.560;2023-06-24T12:45:24;6.13;;;4.20;;
23496;SDS011;11925;48.122;11.560;2023-06-24T12:47:52;5.53;;;3.95;;
23496;SDS011;11925;48.122;11.560;2023-06-24T12:50:21;5.32;;;4.20;;
23496;SDS011;11925;48.122;11.560;2023-06-24T12:52:54;5.43;;;4.22;;
23496;SDS011;11925;48.122;11.560;2023-06-24T12:55:23;5.53;;;4.28;;
23496;SDS011;11925;48.122;11.560;2023-06-24T12:57:51;6.25;;;3.88;;
23496;SDS011;11925;48.122;11.560;2023-06-24T13:00:20;5.18;;;4.20;;
23496;SDS011;11925;48.122;11.560;2023-06-24T13:02:49;5.30;;;4.07;;
23496;SDS011;11925;48.122;11.560;2023-06-24T13:05:18;5.13;;;4.03;;
23496;SDS011;11925;48.122;11.560;2023-06-24T13:07:47;6.05;;;4.30;;
23496;SDS011;11925;48.122;11.560;2023-06-24T13:10:17;6.20;;;3.72;;
23496;SDS011;11925;48.122;11.560;2023-06-24T13:12:46;13.95;;;6.72;;
23496;SDS011;11925;48.122;11.560;2023-06-24T13:15:18;285.90;;;166.90;;
23496;SDS011;11925;48.122;11.560;2023-06-24T13:17:47;259.00;;;159.95;;
23496;SDS011;11925;48.122;11.560;2023-06-24T13:20:15;258.42;;;157.25;;
23496;SDS011;11925;48.122;11.560;2023-06-24T13:22:44;325.63;;;184.85;;
23496;SDS011;11925;48.122;11.560;2023-06-24T13:25:13;81.72;;;46.58;;
23496;SDS011;11925;48.122;11.560;2023-06-24T13:27:44;41.60;;;24.60;;
23496;SDS011;11925;48.122;11.560;2023-06-24T13:30:13;39.45;;;22.45;;
23496;SDS011;11925;48.122;11.560;2023-06-24T13:32:43;46.97;;;26.92;;
23496;SDS011;11925;48.122;11.560;2023-06-24T13:35:12;24.98;;;15.60;;
23496;SDS011;11925;48.122;11.560;2023-06-24T13:37:40;35.13;;;22.73;;
23496;SDS011;11925;48.122;11.560;2023-06-24T13:40:10;32.42;;;19.58;;
23496;SDS011;11925;48.122;11.560;2023-06-24T13:42:39;20.70;;;13.48;;
23496;SDS011;11925;48.122;11.560;2023-06-24T13:45:09;24.85;;;15.77;;
23496;SDS011;11925;48.122;11.560;2023-06-24T13:47:38;20.20;;;13.02;;
23496;SDS011;11925;48.122;11.560;2023-06-24T13:50:07;28.73;;;18.63;;
23496;SDS011;11925;48.122;11.560;2023-06-24T13:52:36;21.98;;;12.75;;
23496;SDS011;11925;48.122;11.560;2023-06-24T13:55:04;37.83;;;22.05;;
23496;SDS011;11925;48.122;11.560;2023-06-24T13:57:33;22.80;;;15.35;;
23496;SDS011;11925;48.122;11.560;2023-06-24T14:00:02;29.25;;;17.65;;
23496;SDS011;11925;48.122;11.560;2023-06-24T14:02:39;21.55;;;13.98;;
23496;SDS011;11925;48.122;11.560;2023-06-24T14:05:08;16.48;;;10.43;;
23496;SDS011;11925;48.122;11.560;2023-06-24T14:07:36;13.50;;;8.63;;
23496;SDS011;11925;48.122;11.560;2023-06-24T14:10:05;13.30;;;8.82;;
23496;SDS011;11925;48.122;11.560;2023-06-24T14:12:35;9.80;;;6.07;;
23496;SDS011;11925;48.122;11.560;2023-06-24T14:15:04;9.60;;;6.55;;
23496;SDS011;11925;48.122;11.560;2023-06-24T14:17:33;9.23;;;5.90;;
23496;SDS011;11925;48.122;11.560;2023-06-24T14:20:03;7.68;;;5.43;;
23496;SDS011;11925;48.122;11.560;2023-06-24T14:22:32;10.95;;;8.27;;
23496;SDS011;11925;48.122;11.560;2023-06-24T14:25:01;8.45;;;5.97;;
23496;SDS011;11925;48.122;11.560;2023-06-24T14:27:29;8.00;;;5.25;;
23496;SDS011;11925;48.122;11.560;2023-06-24T14:29:57;9.68;;;6.78;;
23496;SDS011;11925;48.122;11.560;2023-06-24T14:32:26;10.93;;;6.72;;
23496;SDS011;11925;48.122;11.560;2023-06-24T14:34:54;8.75;;;6.07;;
23496;SDS011;11925;48.122;11.560;2023-06-24T14:37:24;8.05;;;5.40;;
23496;SDS011;11925;48.122;11.560;2023-06-24T14:39:52;6.72;;;4.32;;
23496;SDS011;11925;48.122;11.560;2023-06-24T14:42:21;7.20;;;5.20;;
23496;SDS011;11925;48.122;11.560;2023-06-24T14:44:49;7.85;;;5.18;;
23496;SDS011;11925;48.122;11.560;2023-06-24T14:47:18;6.40;;;4.80;;
23496;SDS011;11925;48.122;11.560;2023-06-24T14:49:46;7.60;;;5.35;;
23496;SDS011;11925;48.122;11.560;2023-06-24T14:52:14;7.55;;;5.28;;
23496;SDS011;11925;48.122;11.560;2023-06-24T14:54:45;6.25;;;4.47;;
23496;SDS011;11925;48.122;11.560;2023-06-24T14:57:15;5.75;;;4.10;;
23496;SDS011;11925;48.122;11.560;2023-06-24T14:59:43;6.47;;;4.40;;
23496;SDS011;11925;48.122;11.560;2023-06-24T15:02:11;6.75;;;4.47;;
23496;SDS011;11925;48.122;11.560;2023-06-24T15:04:40;6.70;;;4.55;;